sensor_id;sensor_type;location;lat;lon;timestamp;temperature;humidity
14006;DHT22;7078;51.542;7.314;2023-03-14T00:00:08;11.60;99.90
14006;DHT22;7078;51.542;7.314;2023-03-14T00:02:35;11.60;99.90
14006;DHT22;7078;51.542;7.314;2023-03-14T00:05:01;11.60;99.90
14006;DHT22;7078;51.542;7.314;2023-03-14T00:07:40;11.50;99.90
14006;DHT22;7078;51.542;7.314;2023-03-14T00:10:11;11.50;99.90
14006;DHT22;7078;51.542;7.314;2023-03-14T00:12:37;11.50;99.90
14006;DHT22;7078;51.542;7.314;2023-03-14T00:15:03;11.50;99.90
14006;DHT22;7078;51.542;7.314;2023-03-14T00:17:30;11.50;99.90
14006;DHT22;7078;51.542;7.314;2023-03-14T00:19:56;11.50;99.90
14006;DHT22;7078;51.542;7.314;2023-03-14T00:22:21;11.50;99.90
14006;DHT22;7078;51.542;7.314;2023-03-14T00:24:47;11.50;99.90
14006;DHT22;7078;51.542;7.314;2023-03-14T00:27:13;11.50;99.90
14006;DHT22;7078;51.542;7.314;2023-03-14T00:29:38;11.50;99.90
14006;DHT22;7078;51.542;7.314;2023-03-14T00:32:04;11.40;99.90
14006;DHT22;7078;51.542;7.314;2023-03-14T00:34:31;11.40;99.90
14006;DHT22;7078;51.542;7.314;2023-03-14T00:36:57;11.50;99.90
14006;DHT22;7078;51.542;7.314;2023-03-14T00:39:22;11.50;99.90
14006;DHT22;7078;51.542;7.314;2023-03-14T00:41:48;11.40;99.90
14006;DHT22;7078;51.542;7.314;2023-03-14T00:44:13;11.40;99.90
14006;DHT22;7078;51.542;7.314;2023-03-14T00:46:39;11.40;99.90
14006;DHT22;7078;51.542;7.314;2023-03-14T00:49:05;11.50;99.90
14006;DHT22;7078;51.542;7.314;2023-03-14T00:51:30;11.50;99.90
14006;DHT22;7078;51.542;7.314;2023-03-14T00:53:56;11.60;99.90
14006;DHT22;7078;51.542;7.314;2023-03-14T00:56:21;11.50;99.90
14006;DHT22;7078;51.542;7.314;2023-03-14T00:58:47;11.60;99.90
14006;DHT22;7078;51.542;7.314;2023-03-14T01:01:17;11.60;99.90
14006;DHT22;7078;51.542;7.314;2023-03-14T01:03:44;11.60;99.90
14006;DHT22;7078;51.542;7.314;2023-03-14T01:06:15;11.70;99.90
14006;DHT22;7078;51.542;7.314;2023-03-14T01:08:41;11.70;99.90
14006;DHT22;7078;51.542;7.314;2023-03-14T01:11:17;11.40;99.90
14006;DHT22;7078;51.542;7.314;2023-03-14T01:13:44;11.10;99.90
14006;DHT22;7078;51.542;7.314;2023-03-14T01:16:10;10.80;99.90
14006;DHT22;7078;51.542;7.314;2023-03-14T01:18:38;10.60;99.90
14006;DHT22;7078;51.542;7.314;2023-03-14T01:21:19;10.40;99.90
14006;DHT22;7078;51.542;7.314;2023-03-14T01:23:46;10.20;99.90
14006;DHT22;7078;51.542;7.314;2023-03-14T01:26:13;10.10;99.90
14006;DHT22;7078;51.542;7.314;2023-03-14T01:28:39;9.90;99.90
14006;DHT22;7078;51.542;7.314;2023-03-14T01:31:07;9.80;99.90
14006;DHT22;7078;51.542;7.314;2023-03-14T01:33:33;9.80;99.90
14006;DHT22;7078;51.542;7.314;2023-03-14T01:35:59;9.70;99.90
14006;DHT22;7078;51.542;7.314;2023-03-14T01:38:30;9.60;99.90
14006;DHT22;7078;51.542;7.314;2023-03-14T01:40:56;9.60;99.90
14006;DHT22;7078;51.542;7.314;2023-03-14T01:43:22;9.60;99.90
14006;DHT22;7078;51.542;7.314;2023-03-14T01:48:40;9.60;99.90
14006;DHT22;7078;51.542;7.314;2023-03-14T01:51:11;9.60;99.90
14006;DHT22;7078;51.542;7.314;2023-03-14T01:53:39;9.50;99.90
14006;DHT22;7078;51.542;7.314;2023-03-14T01:56:06;9.60;99.90
14006;DHT22;7078;51.542;7.314;2023-03-14T01:58:32;9.60;99.90
14006;DHT22;7078;51.542;7.314;2023-03-14T02:01:01;9.60;99.90
14006;DHT22;7078;51.542;7.314;2023-03-14T02:03:29;9.50;99.90
14006;DHT22;7078;51.542;7.314;2023-03-14T02:05:59;9.50;99.90
14006;DHT22;7078;51.542;7.314;2023-03-14T02:08:27;9.50;99.90
14006;DHT22;7078;51.542;7.314;2023-03-14T02:10:53;9.50;99.90
14006;DHT22;7078;51.542;7.314;2023-03-14T02:13:21;9.60;99.90
14006;DHT22;7078;51.542;7.314;2023-03-14T02:15:47;9.60;99.90
14006;DHT22;7078;51.542;7.314;2023-03-14T02:18:14;9.60;99.90
14006;DHT22;7078;51.542;7.314;2023-03-14T02:20:48;9.50;99.90
14006;DHT22;7078;51.542;7.314;2023-03-14T02:23:24;9.50;99.90
14006;DHT22;7078;51.542;7.314;2023-03-14T02:26:08;9.60;99.90
14006;DHT22;7078;51.542;7.314;2023-03-14T02:28:35;9.60;99.90
14006;DHT22;7078;51.542;7.314;2023-03-14T02:31:00;9.60;99.90
14006;DHT22;7078;51.542;7.314;2023-03-14T02:33:26;9.60;99.90
14006;DHT22;7078;51.542;7.314;2023-03-14T02:35:58;9.60;99.90
14006;DHT22;7078;51.542;7.314;2023-03-14T02:41:01;9.60;99.90
14006;DHT22;7078;51.542;7.314;2023-03-14T02:43:26;9.60;99.90
14006;DHT22;7078;51.542;7.314;2023-03-14T02:45:52;9.70;99.90
14006;DHT22;7078;51.542;7.314;2023-03-14T02:48:22;9.70;99.90
14006;DHT22;7078;51.542;7.314;2023-03-14T02:50:51;9.70;99.90
14006;DHT22;7078;51.542;7.314;2023-03-14T02:53:23;9.80;99.90
14006;DHT22;7078;51.542;7.314;2023-03-14T02:55:50;9.80;99.90
14006;DHT22;7078;51.542;7.314;2023-03-14T02:58:16;9.90;99.90
14006;DHT22;7078;51.542;7.314;2023-03-14T03:00:42;9.90;99.90
14006;DHT22;7078;51.542;7.314;2023-03-14T03:03:08;9.90;99.90
14006;DHT22;7078;51.542;7.314;2023-03-14T03:05:34;9.90;99.90
14006;DHT22;7078;51.542;7.314;2023-03-14T03:08:00;9.90;99.90
14006;DHT22;7078;51.542;7.314;2023-03-14T03:10:26;9.90;99.90
14006;DHT22;7078;51.542;7.314;2023-03-14T03:12:52;9.90;99.90
14006;DHT22;7078;51.542;7.314;2023-03-14T03:15:17;9.90;99.90
14006;DHT22;7078;51.542;7.314;2023-03-14T03:17:43;9.90;99.90
14006;DHT22;7078;51.542;7.314;2023-03-14T03:20:09;9.80;99.90
14006;DHT22;7078;51.542;7.314;2023-03-14T03:22:38;9.70;99.90
14006;DHT22;7078;51.542;7.314;2023-03-14T03:25:05;9.70;99.90
14006;DHT22;7078;51.542;7.314;2023-03-14T03:27:33;9.60;99.90
14006;DHT22;7078;51.542;7.314;2023-03-14T03:30:00;9.60;99.90
14006;DHT22;7078;51.542;7.314;2023-03-14T03:32:27;9.50;99.90
14006;DHT22;7078;51.542;7.314;2023-03-14T03:34:52;9.50;99.90
14006;DHT22;7078;51.542;7.314;2023-03-14T03:37:18;9.50;99.90
14006;DHT22;7078;51.542;7.314;2023-03-14T03:39:44;9.50;99.90
14006;DHT22;7078;51.542;7.314;2023-03-14T03:42:10;9.50;99.90
14006;DHT22;7078;51.542;7.314;2023-03-14T03:44:35;9.50;99.90
14006;DHT22;7078;51.542;7.314;2023-03-14T03:47:01;9.50;99.90
14006;DHT22;7078;51.542;7.314;2023-03-14T03:49:31;9.50;99.90
14006;DHT22;7078;51.542;7.314;2023-03-14T03:51:57;9.50;99.90
14006;DHT22;7078;51.542;7.314;2023-03-14T03:54:22;9.60;99.90
14006;DHT22;7078;51.542;7.314;2023-03-14T03:56:48;9.60;99.90
14006;DHT22;7078;51.542;7.314;2023-03-14T03:59:13;9.60;99.90
14006;DHT22;7078;51.542;7.314;2023-03-14T04:01:39;9.60;99.90
14006;DHT22;7078;51.542;7.314;2023-03-14T04:04:05;9.60;99.90
14006;DHT22;7078;51.542;7.314;2023-03-14T04:06:31;9.70;99.90
14006;DHT22;7078;51.542;7.314;2023-03-14T04:08:56;9.70;99.90
14006;DHT22;7078;51.542;7.314;2023-03-14T04:11:22;9.70;99.90
14006;DHT22;7078;51.542;7.314;2023-03-14T04:13:48;9.70;99.90
14006;DHT22;7078;51.542;7.314;2023-03-14T04:16:19;9.70;99.90
14006;DHT22;7078;51.542;7.314;2023-03-14T04:18:45;9.60;99.90
14006;DHT22;7078;51.542;7.314;2023-03-14T04:21:10;9.60;99.90
14006;DHT22;7078;51.542;7.314;2023-03-14T04:23:36;9.50;99.90
14006;DHT22;7078;51.542;7.314;2023-03-14T04:26:02;9.60;99.90
14006;DHT22;7078;51.542;7.314;2023-03-14T04:28:28;9.50;99.90
14006;DHT22;7078;51.542;7.314;2023-03-14T04:30:53;9.60;99.90
14006;DHT22;7078;51.542;7.314;2023-03-14T04:33:19;9.60;99.90
14006;DHT22;7078;51.542;7.314;2023-03-14T04:35:45;9.60;99.90
14006;DHT22;7078;51.542;7.314;2023-03-14T04:38:11;9.60;99.90
14006;DHT22;7078;51.542;7.314;2023-03-14T04:40:38;9.60;99.90
14006;DHT22;7078;51.542;7.314;2023-03-14T04:43:03;9.60;99.90
14006;DHT22;7078;51.542;7.314;2023-03-14T04:45:29;9.50;99.90
14006;DHT22;7078;51.542;7.314;2023-03-14T04:47:54;9.50;99.90
14006;DHT22;7078;51.542;7.314;2023-03-14T04:50:20;9.40;99.90
14006;DHT22;7078;51.542;7.314;2023-03-14T04:52:45;9.30;99.90
14006;DHT22;7078;51.542;7.314;2023-03-14T04:55:11;9.20;99.90
14006;DHT22;7078;51.542;7.314;2023-03-14T04:57:37;9.20;99.90
14006;DHT22;7078;51.542;7.314;2023-03-14T05:00:04;9.10;99.90
14006;DHT22;7078;51.542;7.314;2023-03-14T05:02:33;9.00;99.90
14006;DHT22;7078;51.542;7.314;2023-03-14T05:04:58;8.90;99.90
14006;DHT22;7078;51.542;7.314;2023-03-14T05:07:24;8.90;99.90
14006;DHT22;7078;51.542;7.314;2023-03-14T05:09:49;8.80;99.90
14006;DHT22;7078;51.542;7.314;2023-03-14T05:12:15;8.80;99.90
14006;DHT22;7078;51.542;7.314;2023-03-14T05:14:40;8.70;99.90
14006;DHT22;7078;51.542;7.314;2023-03-14T05:17:07;8.70;99.90
14006;DHT22;7078;51.542;7.314;2023-03-14T05:19:33;8.70;99.90
14006;DHT22;7078;51.542;7.314;2023-03-14T05:21:58;8.60;99.90
14006;DHT22;7078;51.542;7.314;2023-03-14T05:24:24;8.60;99.90
14006;DHT22;7078;51.542;7.314;2023-03-14T05:26:49;8.60;99.90
14006;DHT22;7078;51.542;7.314;2023-03-14T05:29:15;8.60;99.90
14006;DHT22;7078;51.542;7.314;2023-03-14T05:31:40;8.50;99.90
14006;DHT22;7078;51.542;7.314;2023-03-14T05:34:06;8.50;99.90
14006;DHT22;7078;51.542;7.314;2023-03-14T05:36:31;8.50;99.90
14006;DHT22;7078;51.542;7.314;2023-03-14T05:38:57;8.50;99.90
14006;DHT22;7078;51.542;7.314;2023-03-14T05:41:22;8.50;99.90
14006;DHT22;7078;51.542;7.314;2023-03-14T05:43:48;8.50;99.90
14006;DHT22;7078;51.542;7.314;2023-03-14T05:46:14;8.50;99.90
14006;DHT22;7078;51.542;7.314;2023-03-14T05:48:39;8.50;99.90
14006;DHT22;7078;51.542;7.314;2023-03-14T05:51:05;8.60;99.90
14006;DHT22;7078;51.542;7.314;2023-03-14T05:53:31;8.50;99.90
14006;DHT22;7078;51.542;7.314;2023-03-14T05:55:56;8.50;99.90
14006;DHT22;7078;51.542;7.314;2023-03-14T05:58:22;8.50;99.90
14006;DHT22;7078;51.542;7.314;2023-03-14T06:00:48;8.50;99.90
14006;DHT22;7078;51.542;7.314;2023-03-14T06:03:13;8.50;99.90
14006;DHT22;7078;51.542;7.314;2023-03-14T06:05:39;8.50;99.90
14006;DHT22;7078;51.542;7.314;2023-03-14T06:08:05;8.50;99.90
14006;DHT22;7078;51.542;7.314;2023-03-14T06:10:30;8.50;99.90
14006;DHT22;7078;51.542;7.314;2023-03-14T06:12:56;8.60;99.90
14006;DHT22;7078;51.542;7.314;2023-03-14T06:15:22;8.60;99.90
14006;DHT22;7078;51.542;7.314;2023-03-14T06:17:47;8.60;99.90
14006;DHT22;7078;51.542;7.314;2023-03-14T06:20:13;8.70;99.90
14006;DHT22;7078;51.542;7.314;2023-03-14T06:22:39;8.70;99.90
14006;DHT22;7078;51.542;7.314;2023-03-14T06:25:06;8.80;99.90
14006;DHT22;7078;51.542;7.314;2023-03-14T06:27:32;8.80;99.90
14006;DHT22;7078;51.542;7.314;2023-03-14T06:29:58;8.90;99.90
14006;DHT22;7078;51.542;7.314;2023-03-14T06:32:23;8.90;99.90
14006;DHT22;7078;51.542;7.314;2023-03-14T06:34:49;8.90;99.90
14006;DHT22;7078;51.542;7.314;2023-03-14T06:37:15;9.00;99.90
14006;DHT22;7078;51.542;7.314;2023-03-14T06:39:40;9.00;99.90
14006;DHT22;7078;51.542;7.314;2023-03-14T06:42:06;9.10;99.90
14006;DHT22;7078;51.542;7.314;2023-03-14T06:44:32;9.10;99.90
14006;DHT22;7078;51.542;7.314;2023-03-14T06:46:57;9.10;99.90
14006;DHT22;7078;51.542;7.314;2023-03-14T06:49:23;9.20;99.90
14006;DHT22;7078;51.542;7.314;2023-03-14T06:51:48;9.30;99.90
14006;DHT22;7078;51.542;7.314;2023-03-14T06:54:14;9.40;99.90
14006;DHT22;7078;51.542;7.314;2023-03-14T06:56:39;9.50;99.90
14006;DHT22;7078;51.542;7.314;2023-03-14T06:59:05;9.60;99.90
14006;DHT22;7078;51.542;7.314;2023-03-14T07:01:31;9.70;99.90
14006;DHT22;7078;51.542;7.314;2023-03-14T07:04:00;9.70;99.90
14006;DHT22;7078;51.542;7.314;2023-03-14T07:06:26;9.70;99.90
14006;DHT22;7078;51.542;7.314;2023-03-14T07:08:54;9.80;99.90
14006;DHT22;7078;51.542;7.314;2023-03-14T07:11:20;9.80;99.90
14006;DHT22;7078;51.542;7.314;2023-03-14T07:13:45;9.90;99.90
14006;DHT22;7078;51.542;7.314;2023-03-14T07:16:11;9.90;99.90
14006;DHT22;7078;51.542;7.314;2023-03-14T07:18:36;9.90;99.90
14006;DHT22;7078;51.542;7.314;2023-03-14T07:21:03;9.80;99.90
14006;DHT22;7078;51.542;7.314;2023-03-14T07:23:28;9.80;99.90
14006;DHT22;7078;51.542;7.314;2023-03-14T07:25:55;9.80;99.90
14006;DHT22;7078;51.542;7.314;2023-03-14T07:28:20;9.80;99.90
14006;DHT22;7078;51.542;7.314;2023-03-14T07:30:47;9.80;99.90
14006;DHT22;7078;51.542;7.314;2023-03-14T07:33:12;9.80;99.90
14006;DHT22;7078;51.542;7.314;2023-03-14T07:35:38;9.90;99.90
14006;DHT22;7078;51.542;7.314;2023-03-14T07:38:03;9.90;99.90
14006;DHT22;7078;51.542;7.314;2023-03-14T07:40:29;9.90;99.90
14006;DHT22;7078;51.542;7.314;2023-03-14T07:42:55;10.00;99.90
14006;DHT22;7078;51.542;7.314;2023-03-14T07:45:20;10.00;99.90
14006;DHT22;7078;51.542;7.314;2023-03-14T07:47:46;10.00;99.90
14006;DHT22;7078;51.542;7.314;2023-03-14T07:50:11;10.10;99.90
14006;DHT22;7078;51.542;7.314;2023-03-14T07:52:37;10.20;99.90
14006;DHT22;7078;51.542;7.314;2023-03-14T07:55:03;10.30;99.90
14006;DHT22;7078;51.542;7.314;2023-03-14T07:57:28;10.40;99.90
14006;DHT22;7078;51.542;7.314;2023-03-14T07:59:54;10.40;99.90
14006;DHT22;7078;51.542;7.314;2023-03-14T08:02:20;10.40;99.90
14006;DHT22;7078;51.542;7.314;2023-03-14T08:04:47;10.40;99.90
14006;DHT22;7078;51.542;7.314;2023-03-14T08:07:13;10.40;99.90
14006;DHT22;7078;51.542;7.314;2023-03-14T08:09:38;10.40;99.90
14006;DHT22;7078;51.542;7.314;2023-03-14T08:12:04;10.40;99.90
14006;DHT22;7078;51.542;7.314;2023-03-14T08:14:30;10.40;99.90
14006;DHT22;7078;51.542;7.314;2023-03-14T08:16:56;10.40;99.90
14006;DHT22;7078;51.542;7.314;2023-03-14T08:19:22;10.40;99.90
14006;DHT22;7078;51.542;7.314;2023-03-14T08:21:47;10.50;99.90
14006;DHT22;7078;51.542;7.314;2023-03-14T08:24:13;10.40;99.90
14006;DHT22;7078;51.542;7.314;2023-03-14T08:26:38;10.40;99.90
14006;DHT22;7078;51.542;7.314;2023-03-14T08:29:04;10.30;99.90
14006;DHT22;7078;51.542;7.314;2023-03-14T08:31:30;10.20;99.90
14006;DHT22;7078;51.542;7.314;2023-03-14T08:33:58;10.30;99.90
14006;DHT22;7078;51.542;7.314;2023-03-14T08:36:24;10.20;99.90
14006;DHT22;7078;51.542;7.314;2023-03-14T08:38:50;10.20;99.90
14006;DHT22;7078;51.542;7.314;2023-03-14T08:41:15;10.20;99.90
14006;DHT22;7078;51.542;7.314;2023-03-14T08:43:41;10.20;99.90
14006;DHT22;7078;51.542;7.314;2023-03-14T08:46:06;10.20;99.90
14006;DHT22;7078;51.542;7.314;2023-03-14T08:48:32;10.20;99.90
14006;DHT22;7078;51.542;7.314;2023-03-14T08:51:05;10.20;99.90
14006;DHT22;7078;51.542;7.314;2023-03-14T08:53:31;10.20;99.90
14006;DHT22;7078;51.542;7.314;2023-03-14T08:55:57;10.30;99.90
14006;DHT22;7078;51.542;7.314;2023-03-14T08:58:22;10.40;99.90
14006;DHT22;7078;51.542;7.314;2023-03-14T09:00:49;10.60;99.90
14006;DHT22;7078;51.542;7.314;2023-03-14T09:03:15;10.70;99.90
14006;DHT22;7078;51.542;7.314;2023-03-14T09:05:40;10.80;99.90
14006;DHT22;7078;51.542;7.314;2023-03-14T09:08:06;10.90;99.90
14006;DHT22;7078;51.542;7.314;2023-03-14T09:10:31;11.00;99.90
14006;DHT22;7078;51.542;7.314;2023-03-14T09:12:57;11.10;99.90
14006;DHT22;7078;51.542;7.314;2023-03-14T09:15:23;11.10;99.90
14006;DHT22;7078;51.542;7.314;2023-03-14T09:17:49;11.10;99.90
14006;DHT22;7078;51.542;7.314;2023-03-14T09:20:15;11.10;99.90
14006;DHT22;7078;51.542;7.314;2023-03-14T09:22:40;11.00;99.90
14006;DHT22;7078;51.542;7.314;2023-03-14T09:25:06;10.90;99.90
14006;DHT22;7078;51.542;7.314;2023-03-14T09:27:32;10.80;99.90
14006;DHT22;7078;51.542;7.314;2023-03-14T09:29:57;10.70;99.90
14006;DHT22;7078;51.542;7.314;2023-03-14T09:32:23;10.60;99.90
14006;DHT22;7078;51.542;7.314;2023-03-14T09:34:48;10.50;99.90
14006;DHT22;7078;51.542;7.314;2023-03-14T09:37:14;10.40;99.90
14006;DHT22;7078;51.542;7.314;2023-03-14T09:39:41;10.40;99.90
14006;DHT22;7078;51.542;7.314;2023-03-14T09:42:10;10.30;99.90
14006;DHT22;7078;51.542;7.314;2023-03-14T09:44:47;10.20;99.90
14006;DHT22;7078;51.542;7.314;2023-03-14T09:47:13;9.90;99.90
14006;DHT22;7078;51.542;7.314;2023-03-14T09:49:41;9.70;99.90
14006;DHT22;7078;51.542;7.314;2023-03-14T09:52:13;9.60;99.90
14006;DHT22;7078;51.542;7.314;2023-03-14T09:54:47;9.60;99.90
14006;DHT22;7078;51.542;7.314;2023-03-14T09:57:23;9.50;99.90
14006;DHT22;7078;51.542;7.314;2023-03-14T09:59:50;9.40;99.90
14006;DHT22;7078;51.542;7.314;2023-03-14T10:02:31;9.30;99.90
14006;DHT22;7078;51.542;7.314;2023-03-14T10:04:58;9.30;99.90
14006;DHT22;7078;51.542;7.314;2023-03-14T10:07:31;9.30;99.90
14006;DHT22;7078;51.542;7.314;2023-03-14T10:09:58;9.30;99.90
14006;DHT22;7078;51.542;7.314;2023-03-14T10:12:34;9.20;99.90
14006;DHT22;7078;51.542;7.314;2023-03-14T10:15:11;9.20;99.90
14006;DHT22;7078;51.542;7.314;2023-03-14T10:17:42;9.00;99.90
14006;DHT22;7078;51.542;7.314;2023-03-14T10:22:57;8.90;99.90
14006;DHT22;7078;51.542;7.314;2023-03-14T10:25:32;8.80;99.90
14006;DHT22;7078;51.542;7.314;2023-03-14T10:27:58;8.60;99.90
14006;DHT22;7078;51.542;7.314;2023-03-14T10:30:40;8.50;99.90
14006;DHT22;7078;51.542;7.314;2023-03-14T10:33:26;8.30;99.90
14006;DHT22;7078;51.542;7.314;2023-03-14T10:36:03;8.20;99.90
14006;DHT22;7078;51.542;7.314;2023-03-14T10:38:32;8.20;99.90
14006;DHT22;7078;51.542;7.314;2023-03-14T10:40:58;8.30;99.90
14006;DHT22;7078;51.542;7.314;2023-03-14T10:43:43;8.20;99.90
14006;DHT22;7078;51.542;7.314;2023-03-14T10:46:16;8.30;99.90
14006;DHT22;7078;51.542;7.314;2023-03-14T10:48:43;8.30;99.90
14006;DHT22;7078;51.542;7.314;2023-03-14T10:53:48;8.20;99.90
14006;DHT22;7078;51.542;7.314;2023-03-14T10:56:20;8.20;99.90
14006;DHT22;7078;51.542;7.314;2023-03-14T10:58:51;8.20;99.90
14006;DHT22;7078;51.542;7.314;2023-03-14T11:01:37;8.10;99.90
14006;DHT22;7078;51.542;7.314;2023-03-14T11:04:12;8.00;99.90
14006;DHT22;7078;51.542;7.314;2023-03-14T11:09:29;7.70;99.90
14006;DHT22;7078;51.542;7.314;2023-03-14T11:12:28;7.70;99.90
14006;DHT22;7078;51.542;7.314;2023-03-14T11:14:54;7.70;99.90
14006;DHT22;7078;51.542;7.314;2023-03-14T11:17:34;7.60;99.90
14006;DHT22;7078;51.542;7.314;2023-03-14T11:20:04;7.40;99.90
14006;DHT22;7078;51.542;7.314;2023-03-14T11:22:43;7.40;99.90
14006;DHT22;7078;51.542;7.314;2023-03-14T11:27:48;7.20;99.90
14006;DHT22;7078;51.542;7.314;2023-03-14T11:30:39;7.30;99.90
14006;DHT22;7078;51.542;7.314;2023-03-14T11:33:24;7.50;99.90
14006;DHT22;7078;51.542;7.314;2023-03-14T11:36:08;7.70;99.90
14006;DHT22;7078;51.542;7.314;2023-03-14T11:41:08;7.70;99.90
14006;DHT22;7078;51.542;7.314;2023-03-14T11:43:38;7.60;99.90
14006;DHT22;7078;51.542;7.314;2023-03-14T11:49:01;7.30;99.90
14006;DHT22;7078;51.542;7.314;2023-03-14T11:51:39;7.20;99.90
14006;DHT22;7078;51.542;7.314;2023-03-14T11:54:16;7.10;99.90
14006;DHT22;7078;51.542;7.314;2023-03-14T11:56:58;6.90;99.90
14006;DHT22;7078;51.542;7.314;2023-03-14T12:10:18;6.70;99.90
14006;DHT22;7078;51.542;7.314;2023-03-14T12:12:44;6.70;99.90
14006;DHT22;7078;51.542;7.314;2023-03-14T12:15:18;6.70;99.90
14006;DHT22;7078;51.542;7.314;2023-03-14T12:17:44;6.80;99.90
14006;DHT22;7078;51.542;7.314;2023-03-14T12:22:45;6.80;99.90
14006;DHT22;7078;51.542;7.314;2023-03-14T12:30:26;7.00;99.90
14006;DHT22;7078;51.542;7.314;2023-03-14T12:33:14;7.20;99.90
14006;DHT22;7078;51.542;7.314;2023-03-14T12:35:51;7.50;99.90
14006;DHT22;7078;51.542;7.314;2023-03-14T12:38:55;7.70;99.90
14006;DHT22;7078;51.542;7.314;2023-03-14T12:41:35;7.80;99.90
14006;DHT22;7078;51.542;7.314;2023-03-14T12:46:57;8.10;99.90
14006;DHT22;7078;51.542;7.314;2023-03-14T12:49:29;8.20;99.90
14006;DHT22;7078;51.542;7.314;2023-03-14T12:52:00;8.20;99.90
14006;DHT22;7078;51.542;7.314;2023-03-14T13:02:38;7.60;99.90
14006;DHT22;7078;51.542;7.314;2023-03-14T13:05:21;7.40;99.90
14006;DHT22;7078;51.542;7.314;2023-03-14T13:10:27;7.10;99.90
14006;DHT22;7078;51.542;7.314;2023-03-14T13:12:56;7.00;99.90
14006;DHT22;7078;51.542;7.314;2023-03-14T13:15:29;7.00;99.90
14006;DHT22;7078;51.542;7.314;2023-03-14T13:18:03;7.10;99.90
14006;DHT22;7078;51.542;7.314;2023-03-14T13:20:30;7.20;99.90
14006;DHT22;7078;51.542;7.314;2023-03-14T13:22:56;7.20;99.90
14006;DHT22;7078;51.542;7.314;2023-03-14T13:25:22;7.20;99.90
14006;DHT22;7078;51.542;7.314;2023-03-14T13:27:48;7.40;99.90
14006;DHT22;7078;51.542;7.314;2023-03-14T13:32:49;7.50;99.90
14006;DHT22;7078;51.542;7.314;2023-03-14T13:37:42;7.30;99.90
14006;DHT22;7078;51.542;7.314;2023-03-14T13:40:24;7.20;99.90
14006;DHT22;7078;51.542;7.314;2023-03-14T13:43:00;7.00;99.90
14006;DHT22;7078;51.542;7.314;2023-03-14T13:45:26;6.90;99.90
14006;DHT22;7078;51.542;7.314;2023-03-14T13:47:52;6.80;99.90
14006;DHT22;7078;51.542;7.314;2023-03-14T13:50:18;6.80;99.90
14006;DHT22;7078;51.542;7.314;2023-03-14T13:52:44;7.00;99.90
14006;DHT22;7078;51.542;7.314;2023-03-14T13:55:17;7.20;99.90
14006;DHT22;7078;51.542;7.314;2023-03-14T13:57:53;7.40;99.90
14006;DHT22;7078;51.542;7.314;2023-03-14T14:00:25;7.60;99.90
14006;DHT22;7078;51.542;7.314;2023-03-14T14:02:56;7.80;99.90
14006;DHT22;7078;51.542;7.314;2023-03-14T14:05:25;8.10;99.90
14006;DHT22;7078;51.542;7.314;2023-03-14T14:07:51;8.30;99.90
14006;DHT22;7078;51.542;7.314;2023-03-14T14:10:17;8.40;99.90
14006;DHT22;7078;51.542;7.314;2023-03-14T14:12:50;8.60;99.90
14006;DHT22;7078;51.542;7.314;2023-03-14T14:15:26;8.60;99.90
14006;DHT22;7078;51.542;7.314;2023-03-14T14:17:55;8.50;99.90
14006;DHT22;7078;51.542;7.314;2023-03-14T14:20:31;8.60;99.90
14006;DHT22;7078;51.542;7.314;2023-03-14T14:23:01;8.60;99.90
14006;DHT22;7078;51.542;7.314;2023-03-14T14:25:29;8.70;99.90
14006;DHT22;7078;51.542;7.314;2023-03-14T14:27:55;8.70;99.90
14006;DHT22;7078;51.542;7.314;2023-03-14T14:32:48;8.90;99.90
14006;DHT22;7078;51.542;7.314;2023-03-14T14:35:24;9.30;99.90
14006;DHT22;7078;51.542;7.314;2023-03-14T14:37:50;9.20;99.90
14006;DHT22;7078;51.542;7.314;2023-03-14T14:40:20;9.20;95.10
14006;DHT22;7078;51.542;7.314;2023-03-14T14:42:46;9.10;92.60
14006;DHT22;7078;51.542;7.314;2023-03-14T14:45:18;9.10;91.10
14006;DHT22;7078;51.542;7.314;2023-03-14T14:47:55;9.20;90.70
14006;DHT22;7078;51.542;7.314;2023-03-14T14:50:31;9.30;85.60
14006;DHT22;7078;51.542;7.314;2023-03-14T14:52:58;9.30;85.00
14006;DHT22;7078;51.542;7.314;2023-03-14T14:55:31;9.50;81.70
14006;DHT22;7078;51.542;7.314;2023-03-14T14:57:58;9.50;79.90
14006;DHT22;7078;51.542;7.314;2023-03-14T15:00:39;9.50;77.50
14006;DHT22;7078;51.542;7.314;2023-03-14T15:03:12;9.40;76.30
14006;DHT22;7078;51.542;7.314;2023-03-14T15:05:40;9.40;74.80
14006;DHT22;7078;51.542;7.314;2023-03-14T15:08:09;9.50;74.50
14006;DHT22;7078;51.542;7.314;2023-03-14T15:10:35;9.50;72.70
14006;DHT22;7078;51.542;7.314;2023-03-14T15:13:01;9.40;70.90
14006;DHT22;7078;51.542;7.314;2023-03-14T15:15:26;9.20;72.60
14006;DHT22;7078;51.542;7.314;2023-03-14T15:17:52;9.10;71.80
14006;DHT22;7078;51.542;7.314;2023-03-14T15:20:18;9.00;73.60
14006;DHT22;7078;51.542;7.314;2023-03-14T15:22:45;8.80;75.00
14006;DHT22;7078;51.542;7.314;2023-03-14T15:25:11;8.70;77.70
14006;DHT22;7078;51.542;7.314;2023-03-14T15:27:37;8.50;77.30
14006;DHT22;7078;51.542;7.314;2023-03-14T15:30:10;8.20;78.30
14006;DHT22;7078;51.542;7.314;2023-03-14T15:32:36;8.10;79.20
14006;DHT22;7078;51.542;7.314;2023-03-14T15:35:02;8.00;78.10
14006;DHT22;7078;51.542;7.314;2023-03-14T15:37:27;7.90;77.20
14006;DHT22;7078;51.542;7.314;2023-03-14T15:39:53;7.80;76.50
14006;DHT22;7078;51.542;7.314;2023-03-14T15:42:18;7.70;76.10
14006;DHT22;7078;51.542;7.314;2023-03-14T15:44:44;7.60;74.50
14006;DHT22;7078;51.542;7.314;2023-03-14T15:47:10;7.60;73.80
14006;DHT22;7078;51.542;7.314;2023-03-14T15:49:36;7.50;72.00
14006;DHT22;7078;51.542;7.314;2023-03-14T15:52:01;7.60;72.60
14006;DHT22;7078;51.542;7.314;2023-03-14T15:54:27;7.60;72.50
14006;DHT22;7078;51.542;7.314;2023-03-14T15:56:56;7.60;72.70
14006;DHT22;7078;51.542;7.314;2023-03-14T15:59:22;7.70;73.10
14006;DHT22;7078;51.542;7.314;2023-03-14T16:01:48;7.70;73.00
14006;DHT22;7078;51.542;7.314;2023-03-14T16:04:14;7.80;74.50
14006;DHT22;7078;51.542;7.314;2023-03-14T16:06:40;7.80;74.50
14006;DHT22;7078;51.542;7.314;2023-03-14T16:09:06;7.80;73.70
14006;DHT22;7078;51.542;7.314;2023-03-14T16:11:31;7.80;70.60
14006;DHT22;7078;51.542;7.314;2023-03-14T16:13:57;7.70;66.70
14006;DHT22;7078;51.542;7.314;2023-03-14T16:16:22;7.80;62.90
14006;DHT22;7078;51.542;7.314;2023-03-14T16:18:48;7.80;61.80
14006;DHT22;7078;51.542;7.314;2023-03-14T16:21:16;7.70;62.80
14006;DHT22;7078;51.542;7.314;2023-03-14T16:23:42;7.70;64.60
14006;DHT22;7078;51.542;7.314;2023-03-14T16:26:13;7.80;64.70
14006;DHT22;7078;51.542;7.314;2023-03-14T16:28:42;7.90;63.20
14006;DHT22;7078;51.542;7.314;2023-03-14T16:31:10;8.10;60.10
14006;DHT22;7078;51.542;7.314;2023-03-14T16:33:37;8.20;62.70
14006;DHT22;7078;51.542;7.314;2023-03-14T16:36:04;8.20;62.10
14006;DHT22;7078;51.542;7.314;2023-03-14T16:38:33;8.00;60.60
14006;DHT22;7078;51.542;7.314;2023-03-14T16:41:02;7.80;62.90
14006;DHT22;7078;51.542;7.314;2023-03-14T16:43:29;7.70;65.00
14006;DHT22;7078;51.542;7.314;2023-03-14T16:45:58;7.60;63.70
14006;DHT22;7078;51.542;7.314;2023-03-14T16:48:24;7.50;64.50
14006;DHT22;7078;51.542;7.314;2023-03-14T16:50:50;7.30;66.10
14006;DHT22;7078;51.542;7.314;2023-03-14T16:53:16;7.20;68.50
14006;DHT22;7078;51.542;7.314;2023-03-14T16:55:42;7.10;67.50
14006;DHT22;7078;51.542;7.314;2023-03-14T16:58:08;7.00;68.30
14006;DHT22;7078;51.542;7.314;2023-03-14T17:00:34;7.00;70.40
14006;DHT22;7078;51.542;7.314;2023-03-14T17:02:59;6.90;69.10